sensor_id;sensor_type;location;lat;lon;timestamp;P1;durP1;ratioP1;P2;durP2;ratioP2
4885;SDS011;2457;51.788;6.136;2023-08-20T00:02:05;8.20;;;2.10;;
4885;SDS011;2457;51.788;6.136;2023-08-20T00:04:33;10.20;;;2.33;;
4885;SDS011;2457;51.788;6.136;2023-08-20T00:07:03;8.27;;;2.10;;
4885;SDS011;2457;51.788;6.136;2023-08-20T00:09:30;10.93;;;2.30;;
4885;SDS011;2457;51.788;6.136;2023-08-20T00:11:59;7.80;;;1.87;;
4885;SDS011;2457;51.788;6.136;2023-08-20T00:17:13;11.00;;;2.80;;
4885;SDS011;2457;51.788;6.136;2023-08-20T00:19:41;8.53;;;2.40;;
4885;SDS011;2457;51.788;6.136;2023-08-20T00:22:08;7.97;;;2.20;;
4885;SDS011;2457;51.788;6.136;2023-08-20T00:24:36;13.40;;;2.37;;
4885;SDS011;2457;51.788;6.136;2023-08-20T00:27:03;11.70;;;3.10;;
4885;SDS011;2457;51.788;6.136;2023-08-20T00:29:30;12.63;;;2.93;;
4885;SDS011;2457;51.788;6.136;2023-08-20T00:31:57;13.73;;;3.00;;
4885;SDS011;2457;51.788;6.136;2023-08-20T00:34:25;7.10;;;2.27;;
4885;SDS011;2457;51.788;6.136;2023-08-20T00:36:52;14.37;;;2.80;;
4885;SDS011;2457;51.788;6.136;2023-08-20T00:39:19;10.90;;;2.60;;
4885;SDS011;2457;51.788;6.136;2023-08-20T00:41:46;11.23;;;2.70;;
4885;SDS011;2457;51.788;6.136;2023-08-20T00:44:14;12.27;;;2.93;;
4885;SDS011;2457;51.788;6.136;2023-08-20T00:46:41;9.80;;;2.60;;
4885;SDS011;2457;51.788;6.136;2023-08-20T00:49:08;7.93;;;2.90;;
4885;SDS011;2457;51.788;6.136;2023-08-20T00:51:36;17.13;;;2.90;;
4885;SDS011;2457;51.788;6.136;2023-08-20T00:54:03;9.30;;;2.87;;
4885;SDS011;2457;51.788;6.136;2023-08-20T00:56:31;8.00;;;2.33;;
4885;SDS011;2457;51.788;6.136;2023-08-20T00:58:58;10.57;;;2.60;;
4885;SDS011;2457;51.788;6.136;2023-08-20T01:01:25;9.60;;;2.73;;
4885;SDS011;2457;51.788;6.136;2023-08-20T01:03:52;8.37;;;2.80;;
4885;SDS011;2457;51.788;6.136;2023-08-20T01:06:29;11.53;;;2.80;;
4885;SDS011;2457;51.788;6.136;2023-08-20T01:08:52;9.50;;;2.97;;
4885;SDS011;2457;51.788;6.136;2023-08-20T01:11:19;9.57;;;2.80;;
4885;SDS011;2457;51.788;6.136;2023-08-20T01:13:46;9.47;;;2.80;;
4885;SDS011;2457;51.788;6.136;2023-08-20T01:16:13;9.47;;;3.40;;
4885;SDS011;2457;51.788;6.136;2023-08-20T01:18:41;9.53;;;3.10;;
4885;SDS011;2457;51.788;6.136;2023-08-20T01:21:15;10.70;;;3.13;;
4885;SDS011;2457;51.788;6.136;2023-08-20T01:26:21;15.13;;;4.03;;
4885;SDS011;2457;51.788;6.136;2023-08-20T01:28:46;7.70;;;3.10;;
4885;SDS011;2457;51.788;6.136;2023-08-20T01:31:13;8.77;;;3.80;;
4885;SDS011;2457;51.788;6.136;2023-08-20T01:33:41;13.40;;;3.90;;
4885;SDS011;2457;51.788;6.136;2023-08-20T01:36:09;11.57;;;3.20;;
4885;SDS011;2457;51.788;6.136;2023-08-20T01:38:36;8.73;;;2.73;;
4885;SDS011;2457;51.788;6.136;2023-08-20T01:41:04;12.30;;;3.40;;
4885;SDS011;2457;51.788;6.136;2023-08-20T01:43:31;11.30;;;2.77;;
4885;SDS011;2457;51.788;6.136;2023-08-20T01:45:59;13.37;;;3.17;;
4885;SDS011;2457;51.788;6.136;2023-08-20T01:48:26;14.07;;;2.77;;
4885;SDS011;2457;51.788;6.136;2023-08-20T01:50:54;8.33;;;2.53;;
4885;SDS011;2457;51.788;6.136;2023-08-20T01:53:21;8.37;;;2.67;;
4885;SDS011;2457;51.788;6.136;2023-08-20T01:55:48;9.03;;;2.60;;
4885;SDS011;2457;51.788;6.136;2023-08-20T01:58:16;7.20;;;2.37;;
4885;SDS011;2457;51.788;6.136;2023-08-20T02:00:44;7.30;;;2.70;;
4885;SDS011;2457;51.788;6.136;2023-08-20T02:03:12;12.37;;;2.67;;
4885;SDS011;2457;51.788;6.136;2023-08-20T02:05:39;8.93;;;2.47;;
4885;SDS011;2457;51.788;6.136;2023-08-20T02:08:07;9.33;;;2.43;;
4885;SDS011;2457;51.788;6.136;2023-08-20T02:10:34;10.23;;;2.70;;
4885;SDS011;2457;51.788;6.136;2023-08-20T02:13:01;9.63;;;2.60;;
4885;SDS011;2457;51.788;6.136;2023-08-20T02:15:30;7.57;;;2.57;;
4885;SDS011;2457;51.788;6.136;2023-08-20T02:17:57;7.33;;;2.60;;
4885;SDS011;2457;51.788;6.136;2023-08-20T02:20:26;10.30;;;2.50;;
4885;SDS011;2457;51.788;6.136;2023-08-20T02:22:53;8.10;;;2.63;;
4885;SDS011;2457;51.788;6.136;2023-08-20T02:25:20;8.50;;;2.63;;
4885;SDS011;2457;51.788;6.136;2023-08-20T02:27:48;11.33;;;2.83;;
4885;SDS011;2457;51.788;6.136;2023-08-20T02:30:15;9.27;;;2.50;;
4885;SDS011;2457;51.788;6.136;2023-08-20T02:32:42;11.23;;;2.77;;
4885;SDS011;2457;51.788;6.136;2023-08-20T02:35:10;9.53;;;2.53;;
4885;SDS011;2457;51.788;6.136;2023-08-20T02:37:39;9.87;;;2.60;;
4885;SDS011;2457;51.788;6.136;2023-08-20T02:40:08;11.07;;;2.70;;
4885;SDS011;2457;51.788;6.136;2023-08-20T02:42:36;14.30;;;2.80;;
4885;SDS011;2457;51.788;6.136;2023-08-20T02:45:04;11.10;;;2.10;;
4885;SDS011;2457;51.788;6.136;2023-08-20T02:47:31;8.10;;;2.67;;
4885;SDS011;2457;51.788;6.136;2023-08-20T02:49:58;8.10;;;2.70;;
4885;SDS011;2457;51.788;6.136;2023-08-20T02:52:26;11.73;;;2.80;;
4885;SDS011;2457;51.788;6.136;2023-08-20T02:54:53;10.67;;;2.53;;
4885;SDS011;2457;51.788;6.136;2023-08-20T02:57:20;9.57;;;3.00;;
4885;SDS011;2457;51.788;6.136;2023-08-20T02:59:47;8.67;;;2.93;;
4885;SDS011;2457;51.788;6.136;2023-08-20T03:02:15;8.33;;;3.07;;
4885;SDS011;2457;51.788;6.136;2023-08-20T03:04:42;12.00;;;2.90;;
4885;SDS011;2457;51.788;6.136;2023-08-20T03:07:09;12.80;;;3.43;;
4885;SDS011;2457;51.788;6.136;2023-08-20T03:09:37;11.83;;;3.70;;
4885;SDS011;2457;51.788;6.136;2023-08-20T03:12:04;13.87;;;3.40;;
4885;SDS011;2457;51.788;6.136;2023-08-20T03:14:32;8.93;;;2.60;;
4885;SDS011;2457;51.788;6.136;2023-08-20T03:16:59;7.93;;;2.80;;
4885;SDS011;2457;51.788;6.136;2023-08-20T03:19:26;13.47;;;3.07;;
4885;SDS011;2457;51.788;6.136;2023-08-20T03:21:53;14.70;;;3.17;;
4885;SDS011;2457;51.788;6.136;2023-08-20T03:24:21;11.23;;;3.60;;
4885;SDS011;2457;51.788;6.136;2023-08-20T03:26:48;7.00;;;2.50;;
4885;SDS011;2457;51.788;6.136;2023-08-20T03:29:15;7.83;;;2.97;;
4885;SDS011;2457;51.788;6.136;2023-08-20T03:31:42;11.23;;;3.00;;
4885;SDS011;2457;51.788;6.136;2023-08-20T03:34:10;8.80;;;2.57;;
4885;SDS011;2457;51.788;6.136;2023-08-20T03:36:37;8.97;;;2.50;;
4885;SDS011;2457;51.788;6.136;2023-08-20T03:39:04;8.20;;;2.63;;
4885;SDS011;2457;51.788;6.136;2023-08-20T03:41:31;9.60;;;2.80;;
4885;SDS011;2457;51.788;6.136;2023-08-20T03:43:59;10.17;;;3.10;;
4885;SDS011;2457;51.788;6.136;2023-08-20T03:46:26;7.97;;;2.97;;
4885;SDS011;2457;51.788;6.136;2023-08-20T03:48:53;9.40;;;2.80;;
4885;SDS011;2457;51.788;6.136;2023-08-20T03:51:20;11.90;;;3.00;;
4885;SDS011;2457;51.788;6.136;2023-08-20T03:53:48;8.80;;;3.03;;
4885;SDS011;2457;51.788;6.136;2023-08-20T03:56:15;12.03;;;3.27;;
4885;SDS011;2457;51.788;6.136;2023-08-20T03:58:42;9.87;;;3.00;;
4885;SDS011;2457;51.788;6.136;2023-08-20T04:01:09;9.53;;;2.70;;
4885;SDS011;2457;51.788;6.136;2023-08-20T04:03:37;11.73;;;2.73;;
4885;SDS011;2457;51.788;6.136;2023-08-20T04:06:05;9.87;;;3.27;;
4885;SDS011;2457;51.788;6.136;2023-08-20T04:08:33;8.53;;;3.07;;
4885;SDS011;2457;51.788;6.136;2023-08-20T04:11:00;11.10;;;3.50;;
4885;SDS011;2457;51.788;6.136;2023-08-20T04:13:29;8.43;;;3.20;;
4885;SDS011;2457;51.788;6.136;2023-08-20T04:15:56;16.93;;;3.77;;
4885;SDS011;2457;51.788;6.136;2023-08-20T04:18:23;9.80;;;3.27;;
4885;SDS011;2457;51.788;6.136;2023-08-20T04:20:51;8.50;;;3.30;;
4885;SDS011;2457;51.788;6.136;2023-08-20T04:23:19;9.40;;;3.10;;
4885;SDS011;2457;51.788;6.136;2023-08-20T04:25:46;12.33;;;3.83;;
4885;SDS011;2457;51.788;6.136;2023-08-20T04:28:13;10.50;;;3.10;;
4885;SDS011;2457;51.788;6.136;2023-08-20T04:30:41;7.40;;;2.93;;
4885;SDS011;2457;51.788;6.136;2023-08-20T04:33:08;10.93;;;2.93;;
4885;SDS011;2457;51.788;6.136;2023-08-20T04:35:35;7.73;;;3.27;;
4885;SDS011;2457;51.788;6.136;2023-08-20T04:38:02;16.20;;;4.40;;
4885;SDS011;2457;51.788;6.136;2023-08-20T04:40:30;7.50;;;2.83;;
4885;SDS011;2457;51.788;6.136;2023-08-20T04:42:57;8.53;;;2.80;;
4885;SDS011;2457;51.788;6.136;2023-08-20T04:45:24;10.40;;;3.00;;
4885;SDS011;2457;51.788;6.136;2023-08-20T04:47:51;10.93;;;2.90;;
4885;SDS011;2457;51.788;6.136;2023-08-20T04:50:19;11.10;;;2.93;;
4885;SDS011;2457;51.788;6.136;2023-08-20T04:52:46;9.00;;;3.70;;
4885;SDS011;2457;51.788;6.136;2023-08-20T04:55:13;8.10;;;2.37;;
4885;SDS011;2457;51.788;6.136;2023-08-20T04:57:42;12.93;;;3.10;;
4885;SDS011;2457;51.788;6.136;2023-08-20T05:00:09;11.10;;;3.43;;
4885;SDS011;2457;51.788;6.136;2023-08-20T05:02:37;7.87;;;2.87;;
4885;SDS011;2457;51.788;6.136;2023-08-20T05:05:04;9.40;;;2.83;;
4885;SDS011;2457;51.788;6.136;2023-08-20T05:07:31;7.10;;;2.53;;
4885;SDS011;2457;51.788;6.136;2023-08-20T05:09:59;7.80;;;3.07;;
4885;SDS011;2457;51.788;6.136;2023-08-20T05:12:26;8.80;;;2.40;;
4885;SDS011;2457;51.788;6.136;2023-08-20T05:14:53;7.60;;;2.73;;
4885;SDS011;2457;51.788;6.136;2023-08-20T05:17:21;7.10;;;2.70;;
4885;SDS011;2457;51.788;6.136;2023-08-20T05:19:49;7.87;;;2.83;;
4885;SDS011;2457;51.788;6.136;2023-08-20T05:22:16;8.63;;;3.00;;
4885;SDS011;2457;51.788;6.136;2023-08-20T05:24:43;7.93;;;2.77;;
4885;SDS011;2457;51.788;6.136;2023-08-20T05:27:12;7.47;;;3.03;;
4885;SDS011;2457;51.788;6.136;2023-08-20T05:29:40;8.63;;;2.70;;
4885;SDS011;2457;51.788;6.136;2023-08-20T05:32:08;7.67;;;2.67;;
4885;SDS011;2457;51.788;6.136;2023-08-20T05:34:35;14.10;;;3.10;;
4885;SDS011;2457;51.788;6.136;2023-08-20T05:37:02;7.77;;;3.03;;
4885;SDS011;2457;51.788;6.136;2023-08-20T05:39:30;9.40;;;2.90;;
4885;SDS011;2457;51.788;6.136;2023-08-20T05:41:57;7.23;;;2.33;;
4885;SDS011;2457;51.788;6.136;2023-08-20T05:44:25;9.33;;;2.80;;
4885;SDS011;2457;51.788;6.136;2023-08-20T05:46:52;9.63;;;2.77;;
4885;SDS011;2457;51.788;6.136;2023-08-20T05:49:19;8.13;;;2.47;;
4885;SDS011;2457;51.788;6.136;2023-08-20T05:51:46;13.20;;;2.80;;
4885;SDS011;2457;51.788;6.136;2023-08-20T05:54:14;6.90;;;3.00;;
4885;SDS011;2457;51.788;6.136;2023-08-20T05:56:41;8.30;;;2.80;;
4885;SDS011;2457;51.788;6.136;2023-08-20T05:59:08;13.03;;;3.63;;
4885;SDS011;2457;51.788;6.136;2023-08-20T06:01:35;9.60;;;2.77;;
4885;SDS011;2457;51.788;6.136;2023-08-20T06:04:03;9.47;;;2.83;;
4885;SDS011;2457;51.788;6.136;2023-08-20T06:06:30;8.83;;;2.93;;
4885;SDS011;2457;51.788;6.136;2023-08-20T06:08:58;9.90;;;2.30;;
4885;SDS011;2457;51.788;6.136;2023-08-20T06:11:25;11.67;;;3.07;;
4885;SDS011;2457;51.788;6.136;2023-08-20T06:13:52;7.93;;;2.53;;
4885;SDS011;2457;51.788;6.136;2023-08-20T06:16:19;6.57;;;2.80;;
4885;SDS011;2457;51.788;6.136;2023-08-20T06:18:47;8.27;;;2.40;;
4885;SDS011;2457;51.788;6.136;2023-08-20T06:21:14;8.27;;;2.93;;
4885;SDS011;2457;51.788;6.136;2023-08-20T06:23:42;9.83;;;3.17;;
4885;SDS011;2457;51.788;6.136;2023-08-20T06:26:09;6.70;;;2.83;;
4885;SDS011;2457;51.788;6.136;2023-08-20T06:28:36;11.10;;;2.70;;
4885;SDS011;2457;51.788;6.136;2023-08-20T06:31:04;9.10;;;2.53;;
4885;SDS011;2457;51.788;6.136;2023-08-20T06:33:31;8.63;;;2.90;;
4885;SDS011;2457;51.788;6.136;2023-08-20T06:35:58;15.07;;;3.10;;
4885;SDS011;2457;51.788;6.136;2023-08-20T06:38:25;12.10;;;2.60;;
4885;SDS011;2457;51.788;6.136;2023-08-20T06:40:53;8.20;;;2.70;;
4885;SDS011;2457;51.788;6.136;2023-08-20T06:43:20;11.00;;;2.60;;
4885;SDS011;2457;51.788;6.136;2023-08-20T06:45:47;10.07;;;2.53;;
4885;SDS011;2457;51.788;6.136;2023-08-20T06:48:15;6.60;;;2.43;;
4885;SDS011;2457;51.788;6.136;2023-08-20T06:50:42;7.60;;;2.13;;
4885;SDS011;2457;51.788;6.136;2023-08-20T06:53:09;7.43;;;2.50;;
4885;SDS011;2457;51.788;6.136;2023-08-20T06:55:37;9.60;;;1.90;;
4885;SDS011;2457;51.788;6.136;2023-08-20T06:58:04;10.00;;;1.70;;
4885;SDS011;2457;51.788;6.136;2023-08-20T07:00:31;7.67;;;1.70;;
4885;SDS011;2457;51.788;6.136;2023-08-20T07:02:59;6.03;;;1.50;;
4885;SDS011;2457;51.788;6.136;2023-08-20T07:05:26;10.53;;;1.90;;
4885;SDS011;2457;51.788;6.136;2023-08-20T07:07:53;6.03;;;1.60;;
4885;SDS011;2457;51.788;6.136;2023-08-20T07:10:20;8.93;;;2.20;;
4885;SDS011;2457;51.788;6.136;2023-08-20T07:12:48;12.80;;;1.97;;
4885;SDS011;2457;51.788;6.136;2023-08-20T07:15:15;6.70;;;1.57;;
4885;SDS011;2457;51.788;6.136;2023-08-20T07:17:42;7.00;;;1.40;;
4885;SDS011;2457;51.788;6.136;2023-08-20T07:20:10;8.23;;;1.60;;
4885;SDS011;2457;51.788;6.136;2023-08-20T07:22:37;7.63;;;1.57;;
4885;SDS011;2457;51.788;6.136;2023-08-20T07:25:04;9.83;;;2.17;;
4885;SDS011;2457;51.788;6.136;2023-08-20T07:27:32;8.67;;;1.30;;
4885;SDS011;2457;51.788;6.136;2023-08-20T07:29:59;6.60;;;1.50;;
4885;SDS011;2457;51.788;6.136;2023-08-20T07:32:26;8.97;;;1.53;;
4885;SDS011;2457;51.788;6.136;2023-08-20T07:34:53;15.80;;;1.67;;
4885;SDS011;2457;51.788;6.136;2023-08-20T07:37:21;11.20;;;1.73;;
4885;SDS011;2457;51.788;6.136;2023-08-20T07:39:48;9.53;;;1.80;;
4885;SDS011;2457;51.788;6.136;2023-08-20T07:42:15;6.97;;;2.17;;
4885;SDS011;2457;51.788;6.136;2023-08-20T07:44:44;6.87;;;1.30;;
4885;SDS011;2457;51.788;6.136;2023-08-20T07:47:11;7.60;;;1.50;;
4885;SDS011;2457;51.788;6.136;2023-08-20T07:49:38;10.17;;;1.23;;
4885;SDS011;2457;51.788;6.136;2023-08-20T07:52:06;10.87;;;1.20;;
4885;SDS011;2457;51.788;6.136;2023-08-20T07:54:33;8.60;;;1.60;;
4885;SDS011;2457;51.788;6.136;2023-08-20T07:57:00;6.67;;;1.10;;
4885;SDS011;2457;51.788;6.136;2023-08-20T07:59:28;8.83;;;1.90;;
4885;SDS011;2457;51.788;6.136;2023-08-20T08:01:55;8.03;;;1.50;;
4885;SDS011;2457;51.788;6.136;2023-08-20T08:04:22;5.93;;;1.40;;
4885;SDS011;2457;51.788;6.136;2023-08-20T08:06:49;9.00;;;1.53;;
4885;SDS011;2457;51.788;6.136;2023-08-20T08:09:20;8.20;;;1.73;;
4885;SDS011;2457;51.788;6.136;2023-08-20T08:11:48;9.40;;;1.40;;
4885;SDS011;2457;51.788;6.136;2023-08-20T08:14:16;8.90;;;1.57;;
4885;SDS011;2457;51.788;6.136;2023-08-20T08:16:44;12.57;;;1.60;;
4885;SDS011;2457;51.788;6.136;2023-08-20T08:19:11;6.73;;;1.70;;
4885;SDS011;2457;51.788;6.136;2023-08-20T08:21:39;6.47;;;1.30;;
4885;SDS011;2457;51.788;6.136;2023-08-20T08:24:06;7.87;;;1.57;;
4885;SDS011;2457;51.788;6.136;2023-08-20T08:26:34;7.03;;;1.50;;
4885;SDS011;2457;51.788;6.136;2023-08-20T08:29:07;6.53;;;1.40;;
4885;SDS011;2457;51.788;6.136;2023-08-20T08:31:30;10.63;;;1.83;;
4885;SDS011;2457;51.788;6.136;2023-08-20T08:33:58;7.10;;;1.50;;
4885;SDS011;2457;51.788;6.136;2023-08-20T08:36:25;8.70;;;2.20;;
4885;SDS011;2457;51.788;6.136;2023-08-20T08:38:52;10.03;;;1.77;;
4885;SDS011;2457;51.788;6.136;2023-08-20T08:41:21;9.33;;;1.63;;
4885;SDS011;2457;51.788;6.136;2023-08-20T08:43:53;8.50;;;1.57;;
4885;SDS011;2457;51.788;6.136;2023-08-20T08:46:21;10.77;;;1.80;;
4885;SDS011;2457;51.788;6.136;2023-08-20T08:48:49;8.57;;;1.77;;
4885;SDS011;2457;51.788;6.136;2023-08-20T08:51:16;5.17;;;1.63;;
4885;SDS011;2457;51.788;6.136;2023-08-20T08:53:44;11.43;;;1.57;;
4885;SDS011;2457;51.788;6.136;2023-08-20T08:56:13;8.70;;;2.23;;
4885;SDS011;2457;51.788;6.136;2023-08-20T08:58:40;5.70;;;1.60;;
4885;SDS011;2457;51.788;6.136;2023-08-20T09:01:08;8.50;;;1.80;;
4885;SDS011;2457;51.788;6.136;2023-08-20T09:03:35;16.33;;;2.37;;
4885;SDS011;2457;51.788;6.136;2023-08-20T09:06:03;11.40;;;2.30;;
4885;SDS011;2457;51.788;6.136;2023-08-20T09:08:31;6.27;;;2.10;;
4885;SDS011;2457;51.788;6.136;2023-08-20T09:10:59;8.40;;;1.97;;
4885;SDS011;2457;51.788;6.136;2023-08-20T09:13:36;6.37;;;1.77;;
4885;SDS011;2457;51.788;6.136;2023-08-20T09:16:05;13.87;;;2.13;;
4885;SDS011;2457;51.788;6.136;2023-08-20T09:18:33;7.27;;;1.97;;
4885;SDS011;2457;51.788;6.136;2023-08-20T09:21:00;9.13;;;2.40;;
4885;SDS011;2457;51.788;6.136;2023-08-20T09:23:28;10.60;;;2.33;;
4885;SDS011;2457;51.788;6.136;2023-08-20T09:25:56;7.50;;;2.50;;
4885;SDS011;2457;51.788;6.136;2023-08-20T09:28:23;7.87;;;2.13;;
4885;SDS011;2457;51.788;6.136;2023-08-20T09:30:54;8.23;;;2.40;;
4885;SDS011;2457;51.788;6.136;2023-08-20T09:33:22;5.97;;;1.90;;
4885;SDS011;2457;51.788;6.136;2023-08-20T09:35:49;7.63;;;2.27;;
4885;SDS011;2457;51.788;6.136;2023-08-20T09:38:20;7.90;;;1.73;;
4885;SDS011;2457;51.788;6.136;2023-08-20T09:40:52;7.47;;;1.90;;
4885;SDS011;2457;51.788;6.136;2023-08-20T09:43:23;7.47;;;1.77;;
4885;SDS011;2457;51.788;6.136;2023-08-20T09:45:51;6.50;;;1.70;;
4885;SDS011;2457;51.788;6.136;2023-08-20T09:48:19;7.13;;;1.80;;
4885;SDS011;2457;51.788;6.136;2023-08-20T09:50:47;9.30;;;2.27;;
4885;SDS011;2457;51.788;6.136;2023-08-20T09:53:31;8.30;;;2.17;;
4885;SDS011;2457;51.788;6.136;2023-08-20T09:55:56;6.07;;;2.03;;
4885;SDS011;2457;51.788;6.136;2023-08-20T09:58:25;10.20;;;1.93;;
4885;SDS011;2457;51.788;6.136;2023-08-20T10:00:57;6.63;;;1.77;;
4885;SDS011;2457;51.788;6.136;2023-08-20T10:03:22;9.00;;;1.70;;
4885;SDS011;2457;51.788;6.136;2023-08-20T10:05:49;6.73;;;1.93;;
4885;SDS011;2457;51.788;6.136;2023-08-20T10:08:17;6.70;;;1.80;;
4885;SDS011;2457;51.788;6.136;2023-08-20T10:10:44;9.37;;;2.13;;
4885;SDS011;2457;51.788;6.136;2023-08-20T10:13:12;6.43;;;1.53;;
4885;SDS011;2457;51.788;6.136;2023-08-20T10:15:40;8.33;;;1.93;;
4885;SDS011;2457;51.788;6.136;2023-08-20T10:18:08;6.90;;;1.83;;
4885;SDS011;2457;51.788;6.136;2023-08-20T10:20:35;6.73;;;1.60;;
4885;SDS011;2457;51.788;6.136;2023-08-20T10:23:04;5.73;;;1.40;;
4885;SDS011;2457;51.788;6.136;2023-08-20T10:25:32;7.50;;;1.50;;
4885;SDS011;2457;51.788;6.136;2023-08-20T10:28:13;6.00;;;1.67;;
4885;SDS011;2457;51.788;6.136;2023-08-20T10:33:27;8.07;;;1.50;;
4885;SDS011;2457;51.788;6.136;2023-08-20T10:35:54;8.33;;;1.50;;
4885;SDS011;2457;51.788;6.136;2023-08-20T10:38:22;6.67;;;1.40;;
4885;SDS011;2457;51.788;6.136;2023-08-20T10:43:28;7.83;;;1.33;;
4885;SDS011;2457;51.788;6.136;2023-08-20T10:51:17;5.07;;;1.00;;
4885;SDS011;2457;51.788;6.136;2023-08-20T10:59:14;6.07;;;1.53;;
4885;SDS011;2457;51.788;6.136;2023-08-20T11:01:45;7.20;;;1.10;;
4885;SDS011;2457;51.788;6.136;2023-08-20T11:04:14;7.17;;;1.60;;
4885;SDS011;2457;51.788;6.136;2023-08-20T11:06:42;7.70;;;1.40;;
4885;SDS011;2457;51.788;6.136;2023-08-20T11:09:10;5.40;;;1.20;;
4885;SDS011;2457;51.788;6.136;2023-08-20T11:11:38;5.53;;;1.10;;
4885;SDS011;2457;51.788;6.136;2023-08-20T11:14:07;10.33;;;1.40;;
4885;SDS011;2457;51.788;6.136;2023-08-20T11:16:34;5.90;;;1.17;;
4885;SDS011;2457;51.788;6.136;2023-08-20T11:19:04;5.47;;;1.30;;
4885;SDS011;2457;51.788;6.136;2023-08-20T11:21:33;8.67;;;1.40;;
4885;SDS011;2457;51.788;6.136;2023-08-20T11:24:01;4.57;;;1.10;;
4885;SDS011;2457;51.788;6.136;2023-08-20T11:26:29;5.23;;;1.20;;
4885;SDS011;2457;51.788;6.136;2023-08-20T11:28:56;5.60;;;1.30;;
4885;SDS011;2457;51.788;6.136;2023-08-20T11:31:23;5.27;;;1.40;;
4885;SDS011;2457;51.788;6.136;2023-08-20T11:33:51;7.03;;;1.10;;
4885;SDS011;2457;51.788;6.136;2023-08-20T11:36:19;9.00;;;1.23;;
4885;SDS011;2457;51.788;6.136;2023-08-20T11:38:50;4.73;;;1.00;;
4885;SDS011;2457;51.788;6.136;2023-08-20T11:41:19;6.20;;;1.47;;
4885;SDS011;2457;51.788;6.136;2023-08-20T11:43:47;4.37;;;0.83;;
4885;SDS011;2457;51.788;6.136;2023-08-20T11:46:18;5.00;;;0.97;;
4885;SDS011;2457;51.788;6.136;2023-08-20T11:51:29;6.20;;;1.00;;
4885;SDS011;2457;51.788;6.136;2023-08-20T11:53:57;5.93;;;1.17;;
4885;SDS011;2457;51.788;6.136;2023-08-20T11:56:24;6.07;;;1.00;;
4885;SDS011;2457;51.788;6.136;2023-08-20T11:58:58;6.97;;;1.10;;
4885;SDS011;2457;51.788;6.136;2023-08-20T12:01:22;5.10;;;1.00;;
4885;SDS011;2457;51.788;6.136;2023-08-20T12:03:50;5.57;;;1.10;;
4885;SDS011;2457;51.788;6.136;2023-08-20T12:06:23;4.80;;;1.00;;
4885;SDS011;2457;51.788;6.136;2023-08-20T12:08:46;6.30;;;1.00;;
4885;SDS011;2457;51.788;6.136;2023-08-20T12:11:14;7.10;;;1.33;;
4885;SDS011;2457;51.788;6.136;2023-08-20T12:13:41;4.60;;;0.90;;
4885;SDS011;2457;51.788;6.136;2023-08-20T12:16:09;6.20;;;1.20;;
4885;SDS011;2457;51.788;6.136;2023-08-20T12:18:36;5.73;;;1.10;;
4885;SDS011;2457;51.788;6.136;2023-08-20T12:21:04;7.00;;;1.20;;
4885;SDS011;2457;51.788;6.136;2023-08-20T12:23:31;5.60;;;0.90;;
4885;SDS011;2457;51.788;6.136;2023-08-20T12:25:58;6.27;;;1.17;;
4885;SDS011;2457;51.788;6.136;2023-08-20T12:28:25;5.90;;;1.20;;
4885;SDS011;2457;51.788;6.136;2023-08-20T12:30:53;4.83;;;1.10;;
4885;SDS011;2457;51.788;6.136;2023-08-20T12:33:23;6.77;;;1.10;;
4885;SDS011;2457;51.788;6.136;2023-08-20T12:35:53;4.23;;;0.80;;
4885;SDS011;2457;51.788;6.136;2023-08-20T12:38:19;5.47;;;1.00;;
4885;SDS011;2457;51.788;6.136;2023-08-20T12:40:46;5.37;;;1.20;;
4885;SDS011;2457;51.788;6.136;2023-08-20T12:43:14;4.90;;;1.03;;
4885;SDS011;2457;51.788;6.136;2023-08-20T12:45:41;4.40;;;1.00;;
4885;SDS011;2457;51.788;6.136;2023-08-20T12:48:08;5.20;;;1.10;;
4885;SDS011;2457;51.788;6.136;2023-08-20T12:50:35;5.97;;;1.20;;
4885;SDS011;2457;51.788;6.136;2023-08-20T12:53:03;5.60;;;1.13;;
4885;SDS011;2457;51.788;6.136;2023-08-20T12:55:31;6.57;;;1.23;;
4885;SDS011;2457;51.788;6.136;2023-08-20T12:57:58;6.90;;;1.00;;
4885;SDS011;2457;51.788;6.136;2023-08-20T13:00:26;4.57;;;0.90;;
4885;SDS011;2457;51.788;6.136;2023-08-20T13:02:54;6.50;;;1.87;;
4885;SDS011;2457;51.788;6.136;2023-08-20T13:05:22;5.00;;;1.17;;
4885;SDS011;2457;51.788;6.136;2023-08-20T13:07:49;5.33;;;0.90;;
4885;SDS011;2457;51.788;6.136;2023-08-20T13:10:17;5.13;;;1.00;;
4885;SDS011;2457;51.788;6.136;2023-08-20T13:12:47;5.00;;;0.97;;
4885;SDS011;2457;51.788;6.136;2023-08-20T13:15:16;7.27;;;1.23;;
4885;SDS011;2457;51.788;6.136;2023-08-20T13:17:44;5.43;;;1.10;;
4885;SDS011;2457;51.788;6.136;2023-08-20T13:20:12;6.63;;;1.10;;
4885;SDS011;2457;51.788;6.136;2023-08-20T13:22:39;4.90;;;0.97;;
4885;SDS011;2457;51.788;6.136;2023-08-20T13:25:07;7.03;;;1.00;;
4885;SDS011;2457;51.788;6.136;2023-08-20T13:27:35;5.30;;;1.20;;
4885;SDS011;2457;51.788;6.136;2023-08-20T13:30:03;5.60;;;1.10;;
4885;SDS011;2457;51.788;6.136;2023-08-20T13:32:30;8.63;;;1.20;;
4885;SDS011;2457;51.788;6.136;2023-08-20T13:34:57;5.97;;;1.00;;
4885;SDS011;2457;51.788;6.136;2023-08-20T13:37:24;7.17;;;1.30;;
4885;SDS011;2457;51.788;6.136;2023-08-20T13:39:52;8.30;;;1.13;;
4885;SDS011;2457;51.788;6.136;2023-08-20T13:42:19;9.67;;;1.37;;
4885;SDS011;2457;51.788;6.136;2023-08-20T13:44:46;6.30;;;1.00;;
4885;SDS011;2457;51.788;6.136;2023-08-20T13:47:13;8.37;;;1.27;;
4885;SDS011;2457;51.788;6.136;2023-08-20T13:49:41;5.60;;;1.20;;
4885;SDS011;2457;51.788;6.136;2023-08-20T13:52:09;5.20;;;1.30;;
4885;SDS011;2457;51.788;6.136;2023-08-20T13:54:36;6.13;;;1.13;;
4885;SDS011;2457;51.788;6.136;2023-08-20T13:57:04;7.13;;;1.43;;
4885;SDS011;2457;51.788;6.136;2023-08-20T13:59:31;4.97;;;1.07;;
4885;SDS011;2457;51.788;6.136;2023-08-20T14:01:58;8.83;;;1.40;;
4885;SDS011;2457;51.788;6.136;2023-08-20T14:04:26;5.37;;;1.10;;
4885;SDS011;2457;51.788;6.136;2023-08-20T14:06:53;8.13;;;1.10;;
4885;SDS011;2457;51.788;6.136;2023-08-20T14:09:20;5.70;;;1.10;;
4885;SDS011;2457;51.788;6.136;2023-08-20T14:11:47;5.73;;;1.17;;
4885;SDS011;2457;51.788;6.136;2023-08-20T14:14:15;5.87;;;1.33;;
4885;SDS011;2457;51.788;6.136;2023-08-20T14:16:42;5.13;;;1.10;;
4885;SDS011;2457;51.788;6.136;2023-08-20T14:19:09;6.03;;;1.20;;
4885;SDS011;2457;51.788;6.136;2023-08-20T14:21:37;6.20;;;1.33;;
4885;SDS011;2457;51.788;6.136;2023-08-20T14:24:04;7.13;;;1.30;;
4885;SDS011;2457;51.788;6.136;2023-08-20T14:26:32;7.83;;;1.07;;
4885;SDS011;2457;51.788;6.136;2023-08-20T14:28:59;5.30;;;1.23;;
4885;SDS011;2457;51.788;6.136;2023-08-20T14:31:26;7.70;;;1.20;;
4885;SDS011;2457;51.788;6.136;2023-08-20T14:33:54;11.83;;;1.20;;
4885;SDS011;2457;51.788;6.136;2023-08-20T14:36:21;4.47;;;0.90;;
4885;SDS011;2457;51.788;6.136;2023-08-20T14:38:48;5.30;;;1.17;;
4885;SDS011;2457;51.788;6.136;2023-08-20T14:41:16;7.30;;;1.10;;
4885;SDS011;2457;51.788;6.136;2023-08-20T14:43:43;4.63;;;0.90;;
4885;SDS011;2457;51.788;6.136;2023-08-20T14:46:11;5.40;;;1.30;;
4885;SDS011;2457;51.788;6.136;2023-08-20T14:48:38;7.17;;;1.20;;
4885;SDS011;2457;51.788;6.136;2023-08-20T14:51:07;5.83;;;1.13;;
4885;SDS011;2457;51.788;6.136;2023-08-20T14:53:34;5.63;;;1.13;;
4885;SDS011;2457;51.788;6.136;2023-08-20T14:56:02;5.03;;;1.07;;
4885;SDS011;2457;51.788;6.136;2023-08-20T14:58:29;5.57;;;1.40;;
4885;SDS011;2457;51.788;6.136;2023-08-20T15:00:57;7.43;;;1.50;;
4885;SDS011;2457;51.788;6.136;2023-08-20T15:03:24;6.07;;;1.33;;
4885;SDS011;2457;51.788;6.136;2023-08-20T15:05:51;14.00;;;1.47;;
4885;SDS011;2457;51.788;6.136;2023-08-20T15:08:18;5.53;;;1.13;;
4885;SDS011;2457;51.788;6.136;2023-08-20T15:10:55;6.60;;;1.20;;
4885;SDS011;2457;51.788;6.136;2023-08-20T15:13:14;9.33;;;1.10;;
4885;SDS011;2457;51.788;6.136;2023-08-20T15:15:42;7.30;;;1.37;;
4885;SDS011;2457;51.788;6.136;2023-08-20T15:18:09;6.00;;;1.10;;
4885;SDS011;2457;51.788;6.136;2023-08-20T15:20:36;5.33;;;1.40;;
4885;SDS011;2457;51.788;6.136;2023-08-20T15:23:03;7.80;;;1.53;;
4885;SDS011;2457;51.788;6.136;2023-08-20T15:25:31;6.00;;;1.10;;
4885;SDS011;2457;51.788;6.136;2023-08-20T15:27:58;11.43;;;1.30;;
4885;SDS011;2457;51.788;6.136;2023-08-20T15:30:26;5.90;;;1.33;;
4885;SDS011;2457;51.788;6.136;2023-08-20T15:32:53;4.50;;;1.07;;
4885;SDS011;2457;51.788;6.136;2023-08-20T15:35:20;4.73;;;1.07;;
4885;SDS011;2457;51.788;6.136;2023-08-20T15:37:48;6.83;;;1.10;;
4885;SDS011;2457;51.788;6.136;2023-08-20T15:40:15;5.10;;;1.00;;